LBT715 LFBO-DTTA
Flight info
| Callsign | LBT715 |
|---|---|
| Flight time | 1h 35m |
| Altitude | 37000 |
| Route | AMOLO DCT DEGOL DCT FJR DCT AMFAC DCT BATIV DCT PELOS DCT IPROM DCT CAR DCT NOLSI/N0410F230 A868 MEDAR |
| Aircraft | A320/M-SDE3FGHIRWY/LB1 |
Departure
| Time | 2026-04-27 14:24 |
|---|---|
| Airport | Toulouse-Blagnac Airport (LFBO) |
Arrival
| Time | 2026-04-27 15:59 |
|---|---|
| Airport | Tunis Carthage International Airport (DTTA) |
| Time | Latitude | Longitude | Altitude | Speed | Heading |
|---|---|---|---|---|---|
| 2026-04-27 13:34 | 43.62881 | 1.37484 | 487 ft | 0 kts | 34° |
| 2026-04-27 14:13 | 43.62879 | 1.37482 | 494 ft | 3 kts | 34° |
| 2026-04-27 14:13 | 43.62856 | 1.37464 | 489 ft | 4 kts | 20° |
| 2026-04-27 14:13 | 43.62831 | 1.37458 | 483 ft | 4 kts | 340° |
| 2026-04-27 14:14 | 43.62820 | 1.37469 | 485 ft | 2 kts | 251° |
| 2026-04-27 14:14 | 43.62822 | 1.37477 | 486 ft | 0 kts | 251° |
| 2026-04-27 14:17 | 43.62822 | 1.37476 | 486 ft | 1 kts | 251° |
| 2026-04-27 14:17 | 43.62812 | 1.37433 | 487 ft | 7 kts | 252° |
| 2026-04-27 14:17 | 43.62785 | 1.37384 | 490 ft | 6 kts | 186° |
| 2026-04-27 14:18 | 43.62738 | 1.37422 | 494 ft | 10 kts | 143° |
| 2026-04-27 14:18 | 43.62675 | 1.37483 | 490 ft | 12 kts | 153° |
| 2026-04-27 14:18 | 43.62611 | 1.37430 | 494 ft | 12 kts | 232° |
| 2026-04-27 14:18 | 43.62555 | 1.37338 | 489 ft | 13 kts | 213° |
| 2026-04-27 14:19 | 43.62480 | 1.37381 | 494 ft | 13 kts | 143° |
| 2026-04-27 14:19 | 43.62397 | 1.37467 | 487 ft | 17 kts | 143° |
| 2026-04-27 14:19 | 43.62295 | 1.37572 | 494 ft | 19 kts | 142° |
| 2026-04-27 14:19 | 43.62186 | 1.37684 | 489 ft | 20 kts | 143° |
| 2026-04-27 14:20 | 43.62074 | 1.37801 | 492 ft | 20 kts | 145° |
| 2026-04-27 14:20 | 43.61960 | 1.37918 | 490 ft | 21 kts | 144° |
| 2026-04-27 14:20 | 43.61842 | 1.38039 | 485 ft | 21 kts | 140° |
| 2026-04-27 14:20 | 43.61740 | 1.38149 | 490 ft | 14 kts | 143° |
| 2026-04-27 14:21 | 43.61657 | 1.38174 | 494 ft | 11 kts | 209° |
| 2026-04-27 14:21 | 43.61628 | 1.38118 | 486 ft | 0 kts | 236° |
| 2026-04-27 14:22 | 43.61617 | 1.38095 | 491 ft | 10 kts | 235° |
| 2026-04-27 14:22 | 43.61592 | 1.38001 | 491 ft | 10 kts | 294° |
| 2026-04-27 14:23 | 43.61685 | 1.37896 | 490 ft | 42 kts | 323° |
| 2026-04-27 14:23 | 43.62114 | 1.37460 | 492 ft | 108 kts | 323° |
| 2026-04-27 14:23 | 43.62863 | 1.36673 | 487 ft | 160 kts | 322° |
| 2026-04-27 14:23 | 43.63818 | 1.35672 | 867 ft | 174 kts | 324° |
| 2026-04-27 14:24 | 43.64786 | 1.34682 | 1585 ft | 172 kts | 322° |
| 2026-04-27 14:24 | 43.65720 | 1.33660 | 2317 ft | 171 kts | 321° |
| 2026-04-27 14:24 | 43.66703 | 1.32568 | 2611 ft | 193 kts | 322° |
| 2026-04-27 14:24 | 43.67814 | 1.31347 | 2888 ft | 214 kts | 322° |
| 2026-04-27 14:25 | 43.69081 | 1.30026 | 3168 ft | 240 kts | 330° |
| 2026-04-27 14:25 | 43.70748 | 1.29519 | 3687 ft | 257 kts | 7° |
| 2026-04-27 14:25 | 43.72387 | 1.30552 | 4406 ft | 269 kts | 41° |
| 2026-04-27 14:25 | 43.73427 | 1.32724 | 5160 ft | 277 kts | 66° |
| 2026-04-27 14:26 | 43.74145 | 1.35227 | 5971 ft | 282 kts | 68° |
| 2026-04-27 14:26 | 43.74855 | 1.37734 | 6802 ft | 284 kts | 68° |
| 2026-04-27 14:26 | 43.75581 | 1.40304 | 7554 ft | 289 kts | 68° |
| 2026-04-27 14:26 | 43.76321 | 1.42911 | 8317 ft | 293 kts | 66° |
| 2026-04-27 14:27 | 43.77247 | 1.45433 | 9082 ft | 296 kts | 58° |
| 2026-04-27 14:27 | 43.78353 | 1.47854 | 9845 ft | 300 kts | 55° |
| 2026-04-27 14:27 | 43.79546 | 1.50257 | 10432 ft | 309 kts | 54° |
| 2026-04-27 14:27 | 43.80826 | 1.52792 | 10618 ft | 333 kts | 54° |
| 2026-04-27 14:28 | 43.82023 | 1.55658 | 10776 ft | 356 kts | 65° |
| 2026-04-27 14:28 | 43.82857 | 1.58947 | 11232 ft | 366 kts | 73° |
| 2026-04-27 14:28 | 43.83598 | 1.62344 | 11859 ft | 371 kts | 73° |
| 2026-04-27 14:28 | 43.84343 | 1.65787 | 12507 ft | 375 kts | 73° |
| 2026-04-27 14:29 | 43.85094 | 1.69272 | 13161 ft | 379 kts | 73° |
| 2026-04-27 14:29 | 43.85853 | 1.72790 | 13790 ft | 383 kts | 73° |
| 2026-04-27 14:29 | 43.86608 | 1.76299 | 14362 ft | 387 kts | 73° |
| 2026-04-27 14:29 | 43.87380 | 1.79893 | 14927 ft | 390 kts | 73° |
| 2026-04-27 14:30 | 43.88158 | 1.83508 | 15482 ft | 394 kts | 73° |
| 2026-04-27 14:30 | 43.88945 | 1.87158 | 16038 ft | 397 kts | 73° |
| 2026-04-27 14:30 | 43.89737 | 1.90837 | 16582 ft | 400 kts | 73° |
| 2026-04-27 14:30 | 43.90535 | 1.94552 | 17163 ft | 403 kts | 74° |
| 2026-04-27 14:31 | 43.91288 | 1.98317 | 17722 ft | 406 kts | 79° |
| 2026-04-27 14:31 | 43.91622 | 2.02212 | 18281 ft | 408 kts | 90° |
| 2026-04-27 14:31 | 43.91453 | 2.06138 | 18773 ft | 410 kts | 100° |
| 2026-04-27 14:31 | 43.90854 | 2.10008 | 19263 ft | 411 kts | 104° |
| 2026-04-27 14:32 | 43.90200 | 2.13885 | 19759 ft | 414 kts | 104° |
| 2026-04-27 14:32 | 43.89548 | 2.17781 | 20231 ft | 417 kts | 104° |
| 2026-04-27 14:32 | 43.88893 | 2.21715 | 20708 ft | 420 kts | 104° |
| 2026-04-27 14:32 | 43.88236 | 2.25677 | 21168 ft | 422 kts | 104° |
| 2026-04-27 14:33 | 43.87575 | 2.29658 | 21618 ft | 425 kts | 104° |
| 2026-04-27 14:33 | 43.86908 | 2.33659 | 22042 ft | 428 kts | 104° |
| 2026-04-27 14:33 | 43.86232 | 2.37689 | 22473 ft | 430 kts | 104° |
| 2026-04-27 14:33 | 43.85548 | 2.41738 | 22891 ft | 433 kts | 104° |
| 2026-04-27 14:34 | 43.84855 | 2.45817 | 23288 ft | 436 kts | 104° |
| 2026-04-27 14:34 | 43.84156 | 2.49907 | 23691 ft | 438 kts | 104° |
| 2026-04-27 14:34 | 43.83449 | 2.54025 | 24004 ft | 440 kts | 104° |
| 2026-04-27 14:34 | 43.82738 | 2.58157 | 24320 ft | 443 kts | 104° |
| 2026-04-27 14:35 | 43.82021 | 2.62324 | 24629 ft | 445 kts | 104° |
| 2026-04-27 14:35 | 43.81304 | 2.66497 | 24944 ft | 447 kts | 104° |
| 2026-04-27 14:35 | 43.80581 | 2.70697 | 25265 ft | 449 kts | 104° |
| 2026-04-27 14:35 | 43.79854 | 2.74900 | 25573 ft | 450 kts | 104° |
| 2026-04-27 14:36 | 43.79127 | 2.79078 | 25857 ft | 452 kts | 104° |
| 2026-04-27 14:36 | 43.78387 | 2.83319 | 26136 ft | 455 kts | 104° |
| 2026-04-27 14:36 | 43.77643 | 2.87584 | 26428 ft | 457 kts | 104° |
| 2026-04-27 14:36 | 43.76896 | 2.91869 | 26720 ft | 458 kts | 104° |
| 2026-04-27 14:37 | 43.76144 | 2.96174 | 26975 ft | 461 kts | 104° |
| 2026-04-27 14:37 | 43.75389 | 3.00489 | 27243 ft | 463 kts | 104° |
| 2026-04-27 14:37 | 43.74628 | 3.04824 | 27501 ft | 464 kts | 104° |
| 2026-04-27 14:37 | 43.73862 | 3.09177 | 27717 ft | 467 kts | 104° |
| 2026-04-27 14:38 | 43.73086 | 3.13557 | 27921 ft | 470 kts | 104° |
| 2026-04-27 14:38 | 43.72303 | 3.17948 | 28197 ft | 471 kts | 104° |
| 2026-04-27 14:38 | 43.71513 | 3.22346 | 28422 ft | 473 kts | 104° |
| 2026-04-27 14:38 | 43.70717 | 3.26772 | 28630 ft | 475 kts | 104° |
| 2026-04-27 14:39 | 43.69919 | 3.31202 | 28876 ft | 475 kts | 104° |
| 2026-04-27 14:39 | 43.69120 | 3.35643 | 29079 ft | 477 kts | 104° |
| 2026-04-27 14:39 | 43.68319 | 3.40099 | 29324 ft | 478 kts | 104° |
| 2026-04-27 14:39 | 43.67521 | 3.44545 | 29642 ft | 476 kts | 104° |
| 2026-04-27 14:40 | 43.66722 | 3.48988 | 29946 ft | 476 kts | 104° |
| 2026-04-27 14:40 | 43.65920 | 3.53432 | 30210 ft | 476 kts | 104° |
| 2026-04-27 14:40 | 43.65128 | 3.57814 | 30484 ft | 475 kts | 104° |
| 2026-04-27 14:40 | 43.64327 | 3.62234 | 30740 ft | 474 kts | 104° |
| 2026-04-27 14:41 | 43.63524 | 3.66646 | 30980 ft | 474 kts | 104° |
| 2026-04-27 14:41 | 43.62720 | 3.71055 | 31251 ft | 473 kts | 104° |
| 2026-04-27 14:41 | 43.61914 | 3.75450 | 31503 ft | 472 kts | 104° |
| 2026-04-27 14:41 | 43.61102 | 3.79841 | 31730 ft | 472 kts | 104° |
| 2026-04-27 14:42 | 43.60288 | 3.84225 | 32022 ft | 470 kts | 104° |
| 2026-04-27 14:42 | 43.59478 | 3.88590 | 32299 ft | 469 kts | 103° |
| 2026-04-27 14:42 | 43.58591 | 3.92913 | 32526 ft | 469 kts | 109° |
| 2026-04-27 14:42 | 43.57285 | 3.97035 | 32778 ft | 468 kts | 118° |
| 2026-04-27 14:43 | 43.56162 | 3.99638 | 32965 ft | 468 kts | 124° |
| 2026-04-27 14:43 | 43.54170 | 4.03170 | 33233 ft | 466 kts | 131° |
| 2026-04-27 14:43 | 43.52031 | 4.06474 | 33484 ft | 466 kts | 131° |
| 2026-04-27 14:43 | 43.49879 | 4.09804 | 33731 ft | 465 kts | 131° |
| 2026-04-27 14:44 | 43.47731 | 4.13132 | 33979 ft | 464 kts | 131° |
| 2026-04-27 14:44 | 43.45587 | 4.16454 | 34206 ft | 464 kts | 131° |
| 2026-04-27 14:44 | 43.43443 | 4.19772 | 34419 ft | 464 kts | 131° |
| 2026-04-27 14:44 | 43.41298 | 4.23089 | 34620 ft | 463 kts | 131° |
| 2026-04-27 14:45 | 43.39156 | 4.26395 | 34808 ft | 463 kts | 131° |
| 2026-04-27 14:45 | 43.37012 | 4.29697 | 34990 ft | 463 kts | 131° |
| 2026-04-27 14:45 | 43.34858 | 4.33004 | 35171 ft | 463 kts | 131° |
| 2026-04-27 14:45 | 43.32707 | 4.36305 | 35346 ft | 463 kts | 131° |
| 2026-04-27 14:46 | 43.30562 | 4.39599 | 35517 ft | 463 kts | 131° |
| 2026-04-27 14:46 | 43.28419 | 4.42887 | 35680 ft | 463 kts | 131° |
| 2026-04-27 14:46 | 43.26269 | 4.46180 | 35840 ft | 463 kts | 131° |
| 2026-04-27 14:46 | 43.24119 | 4.49469 | 35982 ft | 463 kts | 131° |
| 2026-04-27 14:47 | 43.21972 | 4.52749 | 36153 ft | 463 kts | 132° |
| 2026-04-27 14:47 | 43.19821 | 4.56029 | 36303 ft | 462 kts | 132° |
| 2026-04-27 14:47 | 43.17671 | 4.59307 | 36454 ft | 462 kts | 131° |
| 2026-04-27 14:47 | 43.15518 | 4.62586 | 36594 ft | 462 kts | 131° |
| 2026-04-27 14:48 | 43.13369 | 4.65856 | 36714 ft | 462 kts | 131° |
| 2026-04-27 14:48 | 43.09055 | 4.72405 | 37019 ft | 461 kts | 132° |
| 2026-04-27 14:48 | 43.06904 | 4.75663 | 37115 ft | 462 kts | 132° |
| 2026-04-27 14:49 | 43.02607 | 4.82159 | 37047 ft | 464 kts | 132° |
| 2026-04-27 14:49 | 43.00439 | 4.85436 | 36939 ft | 464 kts | 132° |
| 2026-04-27 14:49 | 42.98274 | 4.88706 | 36788 ft | 465 kts | 132° |
| 2026-04-27 14:50 | 42.96107 | 4.91974 | 36547 ft | 464 kts | 132° |
| 2026-04-27 14:50 | 42.93905 | 4.95219 | 36314 ft | 464 kts | 134° |
| 2026-04-27 14:50 | 42.91622 | 4.98337 | 36099 ft | 465 kts | 135° |
| 2026-04-27 14:50 | 42.89269 | 5.01361 | 35868 ft | 465 kts | 137° |
| 2026-04-27 14:51 | 42.86882 | 5.04334 | 35636 ft | 465 kts | 137° |
| 2026-04-27 14:51 | 42.84477 | 5.07308 | 35419 ft | 465 kts | 137° |
| 2026-04-27 14:51 | 42.82092 | 5.10284 | 35203 ft | 466 kts | 136° |
| 2026-04-27 14:51 | 42.79719 | 5.13288 | 35095 ft | 465 kts | 136° |
| 2026-04-27 14:52 | 42.75039 | 5.19309 | 35127 ft | 466 kts | 135° |
| 2026-04-27 14:52 | 42.70334 | 5.25389 | 35128 ft | 466 kts | 135° |
| 2026-04-27 14:53 | 42.65622 | 5.31439 | 35125 ft | 466 kts | 136° |
| 2026-04-27 14:53 | 42.60886 | 5.37468 | 35123 ft | 466 kts | 136° |
| 2026-04-27 14:54 | 42.56151 | 5.43476 | 35126 ft | 466 kts | 136° |
| 2026-04-27 14:54 | 42.51417 | 5.49487 | 35127 ft | 466 kts | 136° |
| 2026-04-27 14:55 | 42.46685 | 5.55488 | 35128 ft | 466 kts | 136° |
| 2026-04-27 14:55 | 42.41941 | 5.61491 | 35129 ft | 466 kts | 136° |
| 2026-04-27 14:56 | 42.37197 | 5.67475 | 35126 ft | 466 kts | 136° |
| 2026-04-27 14:56 | 42.32474 | 5.73413 | 35137 ft | 466 kts | 136° |
| 2026-04-27 14:57 | 42.27724 | 5.79379 | 35140 ft | 466 kts | 136° |
| 2026-04-27 14:57 | 42.22961 | 5.85355 | 35139 ft | 466 kts | 136° |
| 2026-04-27 14:58 | 42.18203 | 5.91300 | 35132 ft | 467 kts | 136° |
| 2026-04-27 14:58 | 42.13434 | 5.97265 | 35132 ft | 467 kts | 136° |
| 2026-04-27 14:59 | 42.08669 | 6.03206 | 35135 ft | 467 kts | 136° |
| 2026-04-27 14:59 | 42.03919 | 6.09107 | 35146 ft | 467 kts | 136° |
| 2026-04-27 15:00 | 41.99139 | 6.15029 | 35145 ft | 467 kts | 136° |
| 2026-04-27 15:00 | 41.94355 | 6.20950 | 35143 ft | 467 kts | 136° |
| 2026-04-27 15:01 | 41.89575 | 6.26860 | 35145 ft | 467 kts | 136° |
| 2026-04-27 15:01 | 41.84792 | 6.32761 | 35150 ft | 467 kts | 136° |
| 2026-04-27 15:02 | 41.79998 | 6.38658 | 35143 ft | 467 kts | 136° |
| 2026-04-27 15:02 | 41.75195 | 6.44546 | 35140 ft | 468 kts | 137° |
| 2026-04-27 15:03 | 41.70389 | 6.50421 | 35153 ft | 468 kts | 137° |
| 2026-04-27 15:03 | 41.65576 | 6.56292 | 35155 ft | 468 kts | 137° |
| 2026-04-27 15:04 | 41.60769 | 6.62158 | 35154 ft | 468 kts | 137° |
| 2026-04-27 15:04 | 41.55959 | 6.68016 | 35148 ft | 468 kts | 137° |
| 2026-04-27 15:05 | 41.51139 | 6.73862 | 35140 ft | 468 kts | 137° |
| 2026-04-27 15:05 | 41.46319 | 6.79711 | 35140 ft | 469 kts | 137° |
| 2026-04-27 15:06 | 41.41491 | 6.85560 | 35158 ft | 469 kts | 137° |
| 2026-04-27 15:06 | 41.36684 | 6.91361 | 35155 ft | 468 kts | 137° |
| 2026-04-27 15:07 | 41.31851 | 6.97174 | 35139 ft | 468 kts | 138° |
| 2026-04-27 15:07 | 41.27014 | 7.02981 | 35136 ft | 469 kts | 138° |
| 2026-04-27 15:08 | 41.22167 | 7.08793 | 35136 ft | 469 kts | 138° |
| 2026-04-27 15:08 | 41.17315 | 7.14597 | 35136 ft | 469 kts | 138° |
| 2026-04-27 15:09 | 41.12461 | 7.20390 | 35137 ft | 469 kts | 138° |
| 2026-04-27 15:09 | 41.07599 | 7.26180 | 35125 ft | 470 kts | 138° |
| 2026-04-27 15:10 | 41.02763 | 7.31935 | 35122 ft | 470 kts | 138° |
| 2026-04-27 15:10 | 40.97887 | 7.37721 | 35124 ft | 470 kts | 138° |
| 2026-04-27 15:11 | 40.93009 | 7.43491 | 35123 ft | 471 kts | 138° |
| 2026-04-27 15:11 | 40.88127 | 7.49261 | 35120 ft | 471 kts | 139° |
| 2026-04-27 15:12 | 40.83235 | 7.55031 | 35119 ft | 471 kts | 139° |
| 2026-04-27 15:12 | 40.78350 | 7.60787 | 35136 ft | 470 kts | 139° |
| 2026-04-27 15:13 | 40.73467 | 7.66526 | 35139 ft | 470 kts | 139° |
| 2026-04-27 15:13 | 40.68587 | 7.72246 | 35139 ft | 469 kts | 139° |
| 2026-04-27 15:14 | 40.63697 | 7.77950 | 35123 ft | 469 kts | 139° |
| 2026-04-27 15:14 | 40.58813 | 7.83644 | 35123 ft | 469 kts | 139° |
| 2026-04-27 15:15 | 40.53930 | 7.89338 | 35122 ft | 469 kts | 139° |
| 2026-04-27 15:15 | 40.49046 | 7.95031 | 35120 ft | 469 kts | 139° |
| 2026-04-27 15:16 | 40.44152 | 8.00706 | 35128 ft | 469 kts | 140° |
| 2026-04-27 15:16 | 40.39258 | 8.06372 | 35127 ft | 469 kts | 140° |
| 2026-04-27 15:17 | 40.34365 | 8.12030 | 35124 ft | 468 kts | 140° |
| 2026-04-27 15:17 | 40.29475 | 8.17665 | 35118 ft | 468 kts | 140° |
| 2026-04-27 15:18 | 40.24619 | 8.23254 | 35116 ft | 468 kts | 140° |
| 2026-04-27 15:18 | 40.19717 | 8.28885 | 35116 ft | 468 kts | 140° |
| 2026-04-27 15:19 | 40.14820 | 8.34502 | 35112 ft | 468 kts | 140° |
| 2026-04-27 15:19 | 40.09926 | 8.40097 | 35122 ft | 467 kts | 140° |
| 2026-04-27 15:20 | 40.05035 | 8.45685 | 35126 ft | 467 kts | 140° |
| 2026-04-27 15:20 | 40.00176 | 8.51219 | 35117 ft | 466 kts | 140° |
| 2026-04-27 15:21 | 39.95292 | 8.56771 | 35115 ft | 466 kts | 140° |
| 2026-04-27 15:21 | 39.90399 | 8.62319 | 35105 ft | 466 kts | 141° |
| 2026-04-27 15:22 | 39.85505 | 8.67858 | 35105 ft | 466 kts | 140° |
| 2026-04-27 15:22 | 39.80612 | 8.73400 | 35123 ft | 466 kts | 140° |
| 2026-04-27 15:23 | 39.75723 | 8.78918 | 35122 ft | 465 kts | 141° |
| 2026-04-27 15:23 | 39.70830 | 8.84437 | 35115 ft | 465 kts | 141° |
| 2026-04-27 15:24 | 39.65949 | 8.89930 | 35104 ft | 465 kts | 140° |
| 2026-04-27 15:24 | 39.61053 | 8.95411 | 35108 ft | 465 kts | 141° |
| 2026-04-27 15:25 | 39.56149 | 9.00893 | 35106 ft | 465 kts | 141° |
| 2026-04-27 15:25 | 39.51251 | 9.06372 | 35107 ft | 465 kts | 141° |
| 2026-04-27 15:26 | 39.47181 | 9.10918 | 35125 ft | 465 kts | 140° |
| 2026-04-27 15:26 | 39.42273 | 9.16373 | 35122 ft | 465 kts | 140° |
| 2026-04-27 15:27 | 39.37367 | 9.21823 | 35122 ft | 465 kts | 140° |
| 2026-04-27 15:27 | 39.32459 | 9.27275 | 35122 ft | 465 kts | 140° |
| 2026-04-27 15:28 | 39.27544 | 9.32714 | 35127 ft | 465 kts | 141° |
| 2026-04-27 15:28 | 39.22621 | 9.38140 | 35127 ft | 465 kts | 141° |
| 2026-04-27 15:29 | 39.17745 | 9.43530 | 35120 ft | 465 kts | 141° |
| 2026-04-27 15:29 | 39.12813 | 9.48955 | 35122 ft | 465 kts | 141° |
| 2026-04-27 15:30 | 39.07451 | 9.53533 | 35117 ft | 462 kts | 152° |
| 2026-04-27 15:30 | 39.01881 | 9.57634 | 35116 ft | 462 kts | 152° |
| 2026-04-27 15:31 | 38.96282 | 9.61751 | 35111 ft | 462 kts | 152° |
| 2026-04-27 15:31 | 38.90696 | 9.65851 | 35103 ft | 462 kts | 153° |
| 2026-04-27 15:32 | 38.85103 | 9.69940 | 35105 ft | 463 kts | 153° |
| 2026-04-27 15:32 | 38.79505 | 9.74026 | 35110 ft | 463 kts | 153° |
| 2026-04-27 15:33 | 38.73905 | 9.78115 | 35106 ft | 463 kts | 153° |
| 2026-04-27 15:33 | 38.68315 | 9.82200 | 35096 ft | 462 kts | 153° |
| 2026-04-27 15:34 | 38.62721 | 9.86278 | 35096 ft | 462 kts | 153° |
| 2026-04-27 15:34 | 38.57161 | 9.90319 | 35098 ft | 462 kts | 153° |
| 2026-04-27 15:35 | 38.51568 | 9.94372 | 35100 ft | 462 kts | 153° |
| 2026-04-27 15:35 | 38.45968 | 9.98413 | 35088 ft | 462 kts | 153° |
| 2026-04-27 15:36 | 38.40378 | 10.02453 | 35105 ft | 462 kts | 153° |
| 2026-04-27 15:36 | 38.34774 | 10.06495 | 35110 ft | 461 kts | 153° |
| 2026-04-27 15:37 | 38.29191 | 10.10519 | 35111 ft | 461 kts | 153° |
| 2026-04-27 15:37 | 38.23611 | 10.14543 | 35109 ft | 461 kts | 153° |
| 2026-04-27 15:38 | 38.18029 | 10.18547 | 35102 ft | 460 kts | 154° |
| 2026-04-27 15:38 | 38.12450 | 10.22521 | 35096 ft | 459 kts | 155° |
| 2026-04-27 15:39 | 38.06871 | 10.26328 | 35092 ft | 455 kts | 162° |
| 2026-04-27 15:39 | 38.00841 | 10.28281 | 35091 ft | 443 kts | 180° |
| 2026-04-27 15:40 | 37.94729 | 10.28188 | 35091 ft | 439 kts | 186° |
| 2026-04-27 15:40 | 37.88638 | 10.27894 | 34583 ft | 437 kts | 186° |
| 2026-04-27 15:41 | 37.85598 | 10.27753 | 33853 ft | 436 kts | 186° |
| 2026-04-27 15:41 | 37.82566 | 10.27615 | 33012 ft | 437 kts | 186° |
| 2026-04-27 15:41 | 37.79510 | 10.27473 | 32095 ft | 439 kts | 186° |
| 2026-04-27 15:41 | 37.76443 | 10.27328 | 31142 ft | 443 kts | 186° |
| 2026-04-27 15:42 | 37.73344 | 10.27180 | 30160 ft | 447 kts | 186° |
| 2026-04-27 15:42 | 37.70227 | 10.27028 | 29077 ft | 450 kts | 185° |
| 2026-04-27 15:42 | 37.67105 | 10.26878 | 28240 ft | 448 kts | 185° |
| 2026-04-27 15:42 | 37.64003 | 10.26732 | 27512 ft | 443 kts | 185° |
| 2026-04-27 15:43 | 37.60939 | 10.26590 | 26809 ft | 439 kts | 185° |
| 2026-04-27 15:43 | 37.57902 | 10.26449 | 26137 ft | 435 kts | 185° |
| 2026-04-27 15:43 | 37.54879 | 10.26304 | 25477 ft | 431 kts | 185° |
| 2026-04-27 15:43 | 37.51882 | 10.26411 | 24852 ft | 432 kts | 176° |
| 2026-04-27 15:44 | 37.48968 | 10.27109 | 24230 ft | 432 kts | 169° |
| 2026-04-27 15:44 | 37.46056 | 10.28020 | 23593 ft | 430 kts | 169° |
| 2026-04-27 15:44 | 37.43164 | 10.28929 | 22906 ft | 427 kts | 169° |
| 2026-04-27 15:44 | 37.40295 | 10.29828 | 22278 ft | 423 kts | 169° |
| 2026-04-27 15:45 | 37.37454 | 10.30739 | 21689 ft | 420 kts | 166° |
| 2026-04-27 15:45 | 37.34687 | 10.31916 | 21140 ft | 419 kts | 164° |
| 2026-04-27 15:45 | 37.31941 | 10.33156 | 20423 ft | 420 kts | 163° |
| 2026-04-27 15:45 | 37.29203 | 10.34434 | 19742 ft | 420 kts | 162° |
| 2026-04-27 15:46 | 37.26488 | 10.35717 | 19065 ft | 411 kts | 162° |
| 2026-04-27 15:46 | 37.23830 | 10.36973 | 18430 ft | 405 kts | 163° |
| 2026-04-27 15:46 | 37.21197 | 10.38204 | 17865 ft | 402 kts | 163° |
| 2026-04-27 15:46 | 37.18579 | 10.39415 | 17324 ft | 399 kts | 163° |
| 2026-04-27 15:47 | 37.15970 | 10.40614 | 16786 ft | 398 kts | 163° |
| 2026-04-27 15:47 | 37.13377 | 10.41806 | 16250 ft | 396 kts | 163° |
| 2026-04-27 15:47 | 37.10803 | 10.42986 | 15727 ft | 393 kts | 163° |
| 2026-04-27 15:47 | 37.08241 | 10.44158 | 15164 ft | 392 kts | 163° |
| 2026-04-27 15:48 | 37.05675 | 10.45319 | 14561 ft | 391 kts | 165° |
| 2026-04-27 15:48 | 37.03034 | 10.45867 | 13961 ft | 379 kts | 185° |
| 2026-04-27 15:48 | 37.00495 | 10.45500 | 13320 ft | 368 kts | 193° |
| 2026-04-27 15:49 | 36.95467 | 10.44408 | 12048 ft | 366 kts | 193° |
| 2026-04-27 15:49 | 36.92966 | 10.43848 | 11428 ft | 364 kts | 193° |
| 2026-04-27 15:49 | 36.90494 | 10.43290 | 10848 ft | 354 kts | 193° |
| 2026-04-27 15:49 | 36.88158 | 10.42766 | 10616 ft | 328 kts | 193° |
| 2026-04-27 15:50 | 36.85989 | 10.42291 | 10421 ft | 305 kts | 193° |
| 2026-04-27 15:50 | 36.83945 | 10.41851 | 10219 ft | 293 kts | 194° |
| 2026-04-27 15:50 | 36.81981 | 10.41200 | 9786 ft | 291 kts | 202° |
| 2026-04-27 15:50 | 36.80081 | 10.40352 | 9374 ft | 290 kts | 203° |
| 2026-04-27 15:51 | 36.78189 | 10.39479 | 8964 ft | 288 kts | 203° |
| 2026-04-27 15:51 | 36.76316 | 10.38597 | 8553 ft | 287 kts | 203° |
| 2026-04-27 15:51 | 36.74467 | 10.37713 | 8150 ft | 281 kts | 203° |
| 2026-04-27 15:51 | 36.72649 | 10.36836 | 7760 ft | 280 kts | 204° |
| 2026-04-27 15:52 | 36.70837 | 10.35961 | 7392 ft | 278 kts | 202° |
| 2026-04-27 15:52 | 36.69027 | 10.35093 | 6905 ft | 281 kts | 203° |
| 2026-04-27 15:52 | 36.67200 | 10.34204 | 6382 ft | 281 kts | 202° |
| 2026-04-27 15:52 | 36.65412 | 10.33293 | 5829 ft | 273 kts | 203° |
| 2026-04-27 15:53 | 36.63679 | 10.32388 | 5297 ft | 266 kts | 203° |
| 2026-04-27 15:53 | 36.62031 | 10.31405 | 4885 ft | 263 kts | 215° |
| 2026-04-27 15:53 | 36.60840 | 10.29713 | 4463 ft | 262 kts | 244° |
| 2026-04-27 15:53 | 36.60467 | 10.27518 | 4079 ft | 260 kts | 275° |
| 2026-04-27 15:54 | 36.60758 | 10.25398 | 4025 ft | 240 kts | 282° |
| 2026-04-27 15:54 | 36.61317 | 10.23478 | 4025 ft | 236 kts | 306° |
| 2026-04-27 15:54 | 36.62550 | 10.22177 | 4028 ft | 235 kts | 335° |
| 2026-04-27 15:54 | 36.64079 | 10.21443 | 3831 ft | 234 kts | 342° |
| 2026-04-27 15:55 | 36.65609 | 10.20829 | 3615 ft | 233 kts | 343° |
| 2026-04-27 15:55 | 36.66645 | 10.20422 | 3470 ft | 230 kts | 343° |
| 2026-04-27 15:55 | 36.68640 | 10.19664 | 3253 ft | 219 kts | 343° |
| 2026-04-27 15:55 | 36.70054 | 10.19137 | 3180 ft | 204 kts | 344° |
| 2026-04-27 15:56 | 36.71413 | 10.18989 | 3075 ft | 189 kts | 10° |
| 2026-04-27 15:56 | 36.72666 | 10.19316 | 2797 ft | 185 kts | 14° |
| 2026-04-27 15:56 | 36.73961 | 10.19640 | 2374 ft | 190 kts | 12° |
| 2026-04-27 15:56 | 36.75258 | 10.19946 | 1990 ft | 190 kts | 13° |
| 2026-04-27 15:57 | 36.76521 | 10.20255 | 1591 ft | 180 kts | 15° |
| 2026-04-27 15:57 | 36.77701 | 10.20580 | 1228 ft | 169 kts | 16° |
| 2026-04-27 15:57 | 36.78814 | 10.20920 | 929 ft | 158 kts | 12° |
| 2026-04-27 15:57 | 36.79862 | 10.21197 | 702 ft | 149 kts | 17° |
| 2026-04-27 15:58 | 36.80869 | 10.21486 | 531 ft | 148 kts | 20° |
| 2026-04-27 15:58 | 36.81874 | 10.21782 | 379 ft | 148 kts | 16° |
| 2026-04-27 15:58 | 36.82880 | 10.22069 | 260 ft | 148 kts | 17° |
| 2026-04-27 15:58 | 36.83895 | 10.22363 | 65 ft | 150 kts | 17° |
| 2026-04-27 15:59 | 36.84838 | 10.22634 | 31 ft | 120 kts | 14° |
| 2026-04-27 15:59 | 36.85494 | 10.22808 | 32 ft | 72 kts | 11° |
| 2026-04-27 15:59 | 36.85812 | 10.22893 | 30 ft | 37 kts | 12° |
| 2026-04-27 15:59 | 36.85982 | 10.22872 | 29 ft | 20 kts | 323° |
| 2026-04-27 16:00 | 36.86030 | 10.22756 | 30 ft | 13 kts | 277° |
| 2026-04-27 16:00 | 36.86022 | 10.22689 | 30 ft | 11 kts | 242° |
| 2026-04-27 16:00 | 36.85931 | 10.22648 | 30 ft | 12 kts | 192° |
| 2026-04-27 16:00 | 36.85815 | 10.22615 | 30 ft | 22 kts | 193° |
| 2026-04-27 16:01 | 36.85658 | 10.22572 | 30 ft | 23 kts | 191° |
| 2026-04-27 16:01 | 36.85495 | 10.22530 | 30 ft | 25 kts | 192° |
| 2026-04-27 16:01 | 36.85325 | 10.22483 | 32 ft | 25 kts | 192° |
| 2026-04-27 16:01 | 36.85159 | 10.22440 | 35 ft | 24 kts | 192° |
| 2026-04-27 16:02 | 36.84991 | 10.22391 | 31 ft | 24 kts | 193° |
| 2026-04-27 16:02 | 36.84875 | 10.22348 | 30 ft | 15 kts | 225° |
| 2026-04-27 16:02 | 36.84884 | 10.22230 | 30 ft | 13 kts | 284° |
| 2026-04-27 16:02 | 36.84899 | 10.22122 | 30 ft | 12 kts | 279° |
| 2026-04-27 16:03 | 36.84873 | 10.22044 | 30 ft | 10 kts | 208° |
| 2026-04-27 16:03 | 36.84805 | 10.22038 | 30 ft | 10 kts | 181° |
| 2026-04-27 16:03 | 36.84736 | 10.22027 | 30 ft | 9 kts | 159° |
| 2026-04-27 16:03 | 36.84710 | 10.22085 | 30 ft | 7 kts | 111° |
| 2026-04-27 16:04 | 36.84678 | 10.22086 | 30 ft | 4 kts | 239° |
| 2026-04-27 16:04 | 36.84667 | 10.22052 | 30 ft | 4 kts | 243° |
| 2026-04-27 16:04 | 36.84656 | 10.22023 | 30 ft | 3 kts | 244° |
| 2026-04-27 16:04 | 36.84650 | 10.22006 | 30 ft | 1 kts | 245° |
| 2026-04-27 16:05 | 36.84647 | 10.21999 | 30 ft | 1 kts | 245° |
| 2026-04-27 16:05 | 36.84646 | 10.21997 | 30 ft | 0 kts | 245° |